createdAt,value
2018-09-04T00:29:28.673Z,58.46
2018-09-04T00:31:56.845Z,58.81
2018-09-04T00:34:25.028Z,58.76
2018-09-04T00:36:52.653Z,59.17
2018-09-04T00:39:20.280Z,58.86
2018-09-04T00:41:47.914Z,59.34
2018-09-04T00:44:15.537Z,59.29
2018-09-04T00:46:59.450Z,59.45
2018-09-04T00:49:27.624Z,58.99
2018-09-04T00:51:55.235Z,58.62
2018-09-04T00:54:22.901Z,59.13
2018-09-04T00:56:51.026Z,59.55
2018-09-04T00:59:19.288Z,59.29
2018-09-04T01:01:47.227Z,58.88
2018-09-04T01:04:15.369Z,59.81
2018-09-04T01:06:43.803Z,59.04
2018-09-04T01:09:18.331Z,58.79
2018-09-04T01:11:46.366Z,59.24
2018-09-04T01:14:14.809Z,59.26
2018-09-04T01:16:42.846Z,58.88
2018-09-04T01:19:10.477Z,59.42
2018-09-04T01:21:38.673Z,59.00
2018-09-04T01:24:06.269Z,59.57
2018-09-04T01:26:34.677Z,58.80
2018-09-04T01:29:02.977Z,59.04
2018-09-04T01:31:37.529Z,59.67
2018-09-04T01:34:05.357Z,58.86
2018-09-04T01:36:34.925Z,59.59
2018-09-04T01:39:02.956Z,58.54
2018-09-04T01:43:42.247Z,59.46
2018-09-04T01:46:25.261Z,59.04
2018-09-04T01:48:59.415Z,59.81
2018-09-04T01:54:17.492Z,59.80
2018-09-04T01:56:45.617Z,59.47
2018-09-04T01:59:13.252Z,59.80
2018-09-04T02:01:41.291Z,59.79
2018-09-04T02:04:09.106Z,59.93
2018-09-04T02:06:36.993Z,59.29
2018-09-04T02:09:05.849Z,59.78
2018-09-04T02:11:33.516Z,59.99
2018-09-04T02:14:01.199Z,60.10
2018-09-04T02:16:28.960Z,59.51
2018-09-04T02:18:56.954Z,59.98
2018-09-04T02:21:24.974Z,59.81
2018-09-04T02:23:52.981Z,60.27
2018-09-04T02:26:20.639Z,60.48
2018-09-04T02:28:48.637Z,59.70
2018-09-04T02:31:32.965Z,60.11
2018-09-04T02:36:52.211Z,59.44
2018-09-04T02:39:20.207Z,59.79
2018-09-04T02:41:48.141Z,59.12
2018-09-04T02:44:15.828Z,59.73
2018-09-04T02:46:43.778Z,59.78
2018-09-04T02:49:11.458Z,59.94
2018-09-04T02:51:39.366Z,59.15
2018-09-04T02:54:07.407Z,59.64
2018-09-04T02:56:35.479Z,60.00
2018-09-04T02:59:03.182Z,59.39
2018-09-04T03:01:30.887Z,59.66
2018-09-04T03:03:59.431Z,60.17
2018-09-04T03:06:27.067Z,60.11
2018-09-04T03:08:55.692Z,59.35
2018-09-04T03:11:23.657Z,60.24
2018-09-04T03:13:51.342Z,59.64
2018-09-04T03:16:19.032Z,59.76
2018-09-04T03:18:46.996Z,59.84
2018-09-04T03:21:15.304Z,59.25
2018-09-04T03:23:42.947Z,59.33
2018-09-04T03:26:11.186Z,59.60
2018-09-04T03:28:38.828Z,60.40
2018-09-04T03:31:06.659Z,59.86
2018-09-04T03:33:34.541Z,60.15
2018-09-04T03:36:02.248Z,60.49
2018-09-04T03:38:30.254Z,60.35
2018-09-04T03:40:58.207Z,59.76
2018-09-04T03:43:26.419Z,60.20
2018-09-04T03:45:54.487Z,59.80
2018-09-04T03:48:22.531Z,59.75
2018-09-04T03:50:50.638Z,59.91
2018-09-04T03:53:18.336Z,59.40
2018-09-04T03:55:46.029Z,59.52
2018-09-04T03:58:13.727Z,59.71
2018-09-04T04:00:41.382Z,60.33
2018-09-04T04:03:09.059Z,59.62
2018-09-04T04:05:37.097Z,60.42
2018-09-04T04:08:04.753Z,60.46
2018-09-04T04:10:32.766Z,60.42
2018-09-04T04:13:01.195Z,60.35
2018-09-04T04:15:28.831Z,60.58
2018-09-04T04:17:56.536Z,60.32
2018-09-04T04:20:24.515Z,59.85
2018-09-04T04:22:52.608Z,60.32
2018-09-04T04:25:20.307Z,59.79
2018-09-04T04:27:48.314Z,60.76
2018-09-04T04:30:16.441Z,60.46
2018-09-04T04:32:44.523Z,60.42
2018-09-04T04:35:12.260Z,60.42
2018-09-04T04:37:40.318Z,59.54
2018-09-04T04:40:08.110Z,60.52
2018-09-04T04:42:35.723Z,59.69
2018-09-04T04:45:03.488Z,59.82
2018-09-04T04:47:36.671Z,59.87
2018-09-04T04:50:04.704Z,60.03
2018-09-04T04:52:32.441Z,60.13
2018-09-04T04:55:00.661Z,60.31
2018-09-04T04:57:28.355Z,59.71
2018-09-04T04:59:56.640Z,59.70
2018-09-04T05:02:24.992Z,59.84
2018-09-04T05:04:52.730Z,58.89
2018-09-04T05:07:20.508Z,60.06
2018-09-04T05:09:48.557Z,59.81
2018-09-04T05:12:16.547Z,59.78
2018-09-04T05:14:44.506Z,59.74
2018-09-04T05:17:13.267Z,59.57
2018-09-04T05:19:40.921Z,59.23
2018-09-04T05:22:09.068Z,59.64
2018-09-04T05:24:36.722Z,59.41
2018-09-04T05:27:04.662Z,60.23
2018-09-04T05:29:32.860Z,60.11
2018-09-04T05:32:05.012Z,59.99
2018-09-04T05:34:32.759Z,59.66
2018-09-04T05:37:00.864Z,59.28
2018-09-04T05:39:28.510Z,60.41
2018-09-04T05:42:00.684Z,60.49
2018-09-04T05:44:28.796Z,59.50
2018-09-04T05:46:56.583Z,60.24
2018-09-04T05:49:30.416Z,60.34
2018-09-04T05:51:58.101Z,59.61
2018-09-04T05:54:26.105Z,59.66
2018-09-04T05:56:54.276Z,59.55
2018-09-04T05:59:22.325Z,60.21
2018-09-04T06:04:56.254Z,59.44
2018-09-04T06:07:24.146Z,59.37
2018-09-04T06:09:52.041Z,60.02
2018-09-04T06:12:19.756Z,59.08
2018-09-04T06:14:47.766Z,59.40
2018-09-04T06:17:15.545Z,59.68
2018-09-04T06:19:43.328Z,59.71
2018-09-04T06:22:11.002Z,59.64
2018-09-04T06:24:38.704Z,59.64
2018-09-04T06:27:06.514Z,59.57
2018-09-04T06:29:34.355Z,59.10
2018-09-04T06:32:01.977Z,58.74
2018-09-04T06:34:29.780Z,59.43
2018-09-04T06:36:57.515Z,58.92
2018-09-04T06:39:25.637Z,58.82
2018-09-04T06:41:53.427Z,59.12
2018-09-04T06:44:21.123Z,59.19
2018-09-04T06:46:48.798Z,59.26
2018-09-04T06:49:16.806Z,58.70
2018-09-04T06:51:44.510Z,59.20
2018-09-04T06:54:12.290Z,59.03
2018-09-04T06:56:40.574Z,58.84
2018-09-04T06:59:08.382Z,58.34
2018-09-04T07:01:36.366Z,58.93
2018-09-04T07:04:04.035Z,58.85
2018-09-04T07:06:32.196Z,58.03
2018-09-04T07:08:59.983Z,58.10
2018-09-04T07:11:40.309Z,58.39
2018-09-04T07:14:07.915Z,58.79
2018-09-04T07:16:35.906Z,58.67
2018-09-04T07:19:03.892Z,58.39
2018-09-04T07:30:03.512Z,57.74
2018-09-04T07:32:31.451Z,58.42
2018-09-04T07:34:59.548Z,58.60
2018-09-04T07:37:27.732Z,58.48
2018-09-04T07:39:55.358Z,57.90
2018-09-04T07:42:23.281Z,58.35
2018-09-04T07:44:50.984Z,58.28
2018-09-04T07:47:18.623Z,57.98
2018-09-04T07:49:46.268Z,58.06
2018-09-04T07:52:14.469Z,58.18
2018-09-04T07:54:42.124Z,57.57
2018-09-04T07:57:10.097Z,58.15
2018-09-04T07:59:38.008Z,57.34
2018-09-04T08:02:06.278Z,58.16
2018-09-04T08:04:34.849Z,57.55
2018-09-04T08:07:02.522Z,57.56
2018-09-04T08:09:30.150Z,57.19
2018-09-04T08:11:57.833Z,57.50
2018-09-04T08:14:26.735Z,57.82
2018-09-04T08:16:54.338Z,57.62
2018-09-04T08:19:22.085Z,57.74
2018-09-04T08:21:50.083Z,57.77
2018-09-04T08:24:17.851Z,57.75
2018-09-04T08:26:45.725Z,57.05
2018-09-04T08:29:13.584Z,57.07
2018-09-04T08:31:41.283Z,57.37
2018-09-04T08:34:09.444Z,56.69
2018-09-04T08:36:37.335Z,56.68
2018-09-04T08:39:07.102Z,56.69
2018-09-04T08:41:35.324Z,56.99
2018-09-04T08:44:03.288Z,56.79
2018-09-04T08:46:31.152Z,57.16
2018-09-04T08:48:59.407Z,56.92
2018-09-04T08:51:27.421Z,56.21
2018-09-04T08:53:55.314Z,56.07
2018-09-04T08:56:22.969Z,56.39
2018-09-04T08:58:50.643Z,57.46
2018-09-04T09:01:19.065Z,56.82
2018-09-04T09:03:46.851Z,56.27
2018-09-04T09:06:14.849Z,56.94
2018-09-04T09:08:42.990Z,56.73
2018-09-04T09:11:10.861Z,56.19
2018-09-04T09:13:38.764Z,56.47
2018-09-04T09:16:06.693Z,56.98
2018-09-04T09:18:34.478Z,56.98
2018-09-04T09:21:02.324Z,56.94
2018-09-04T09:23:30.164Z,56.86
2018-09-04T09:25:58.075Z,56.82
2018-09-04T09:28:25.714Z,56.83
2018-09-04T09:30:53.869Z,56.78
2018-09-04T09:33:21.621Z,56.72
2018-09-04T09:35:49.554Z,56.13
2018-09-04T09:38:17.195Z,56.04
2018-09-04T09:40:44.841Z,56.54
2018-09-04T09:43:12.713Z,56.08
2018-09-04T09:45:40.445Z,56.68
2018-09-04T09:48:08.199Z,56.60
2018-09-04T09:50:35.883Z,56.30
2018-09-04T09:53:04.005Z,56.48
2018-09-04T09:55:31.623Z,55.58
2018-09-04T09:57:59.526Z,56.12
2018-09-04T10:00:37.967Z,56.20
2018-09-04T10:03:11.256Z,55.67
2018-09-04T10:05:39.677Z,55.42
2018-09-04T10:08:07.810Z,55.70
2018-09-04T10:10:35.691Z,56.65
2018-09-04T10:13:03.327Z,56.48
2018-09-04T10:15:31.519Z,56.08
2018-09-04T10:17:59.239Z,56.05
2018-09-04T10:20:27.085Z,56.75
2018-09-04T10:22:55.346Z,56.40
2018-09-04T10:25:23.206Z,56.41
2018-09-04T10:27:51.791Z,55.87
2018-09-04T10:30:19.856Z,56.41
2018-09-04T10:32:51.099Z,56.61
2018-09-04T10:35:19.689Z,56.32
2018-09-04T10:37:47.477Z,55.67
2018-09-04T10:40:20.605Z,56.11
2018-09-04T10:42:48.539Z,56.14
2018-09-04T10:45:21.860Z,56.21
2018-09-04T10:47:49.706Z,55.66
2018-09-04T10:50:17.413Z,55.91
2018-09-04T10:52:45.271Z,55.38
2018-09-04T10:55:13.392Z,55.86
2018-09-04T10:57:41.103Z,56.02
2018-09-04T11:00:08.704Z,56.23
2018-09-04T11:02:36.421Z,56.86
2018-09-04T11:05:04.527Z,56.99
2018-09-04T11:07:32.142Z,56.32
2018-09-04T11:09:59.909Z,56.66
2018-09-04T11:12:27.463Z,56.17
2018-09-04T11:14:55.119Z,56.25
2018-09-04T11:17:23.074Z,56.16
2018-09-04T11:19:51.115Z,55.53
2018-09-04T11:22:19.242Z,55.29
2018-09-04T11:24:46.854Z,55.94
2018-09-04T11:27:14.848Z,55.96
2018-09-04T11:29:42.518Z,55.45
2018-09-04T11:32:10.198Z,55.50
2018-09-04T11:34:38.907Z,55.54
2018-09-04T11:37:06.822Z,54.85
2018-09-04T11:39:34.461Z,54.55
2018-09-04T11:42:02.473Z,54.93
2018-09-04T11:44:30.097Z,54.97
2018-09-04T11:46:57.823Z,54.68
2018-09-04T11:49:25.538Z,54.38
2018-09-04T11:51:53.230Z,54.68
2018-09-04T11:54:20.862Z,55.06
2018-09-04T11:56:48.851Z,54.89
2018-09-04T11:59:16.509Z,54.81
2018-09-04T12:01:47.825Z,54.46
2018-09-04T12:04:15.792Z,53.67
2018-09-04T12:06:43.829Z,54.24
2018-09-04T12:09:11.505Z,54.55
2018-09-04T12:11:39.120Z,54.40
2018-09-04T12:14:07.302Z,53.93
2018-09-04T12:16:35.163Z,53.63
2018-09-04T12:19:02.833Z,53.71
2018-09-04T12:21:30.579Z,54.21
2018-09-04T12:23:58.279Z,53.06
2018-09-04T12:26:25.925Z,53.56
2018-09-04T12:28:54.149Z,53.53
2018-09-04T12:31:22.224Z,53.50
2018-09-04T12:33:49.899Z,52.99
2018-09-04T12:36:17.611Z,53.42
2018-09-04T12:38:45.555Z,53.27
2018-09-04T12:41:14.731Z,53.45
2018-09-04T12:43:42.818Z,52.36
2018-09-04T12:46:10.501Z,53.36
2018-09-04T12:48:38.913Z,52.62
2018-09-04T12:51:07.258Z,52.24
2018-09-04T12:53:34.985Z,51.79
2018-09-04T12:56:02.987Z,52.04
2018-09-04T12:58:30.608Z,52.24
2018-09-04T13:00:58.773Z,51.44
2018-09-04T13:03:28.100Z,51.07
2018-09-04T13:05:55.704Z,50.70
2018-09-04T13:08:26.766Z,51.46
2018-09-04T13:10:54.414Z,51.20
2018-09-04T13:13:22.066Z,50.66
2018-09-04T13:15:51.899Z,50.47
2018-09-04T13:18:19.758Z,50.51
2018-09-04T13:20:47.420Z,49.94
2018-09-04T13:23:15.405Z,50.16
2018-09-04T13:25:43.131Z,50.75
2018-09-04T13:28:11.053Z,49.65
2018-09-04T13:30:39.152Z,50.33
2018-09-04T13:33:07.245Z,49.88
2018-09-04T13:35:35.358Z,49.80
2018-09-04T13:38:03.580Z,50.20
2018-09-04T13:40:31.554Z,49.84
2018-09-04T13:42:59.255Z,50.15
2018-09-04T13:45:27.542Z,48.83
2018-09-04T13:47:55.694Z,49.24
2018-09-04T13:50:23.320Z,48.84
2018-09-04T13:52:51.297Z,48.78
2018-09-04T13:55:19.497Z,49.48
2018-09-04T13:57:47.162Z,49.15
2018-09-04T14:00:15.717Z,48.90
2018-09-04T14:02:43.336Z,48.82
2018-09-04T14:05:11.171Z,48.74
2018-09-04T14:07:38.802Z,49.05
2018-09-04T14:10:06.513Z,48.96
2018-09-04T14:12:34.162Z,48.31
2018-09-04T14:15:02.727Z,48.02
2018-09-04T14:17:30.423Z,47.56
2018-09-04T14:19:58.243Z,46.31
2018-09-04T14:22:26.705Z,45.21
2018-09-04T14:24:54.716Z,43.92
2018-09-04T14:27:22.765Z,43.16
2018-09-04T14:29:53.964Z,42.84
2018-09-04T14:32:18.190Z,42.86
2018-09-04T14:34:46.127Z,42.71
2018-09-04T14:37:14.351Z,42.32
2018-09-04T14:39:42.242Z,41.73
2018-09-04T14:42:10.540Z,41.05
2018-09-04T14:44:38.546Z,41.07
2018-09-04T14:47:06.213Z,40.88
2018-09-04T14:49:34.370Z,40.95
2018-09-04T14:52:01.956Z,40.71
2018-09-04T14:54:29.907Z,40.67
2018-09-04T14:56:57.973Z,40.70
2018-09-04T14:59:26.231Z,40.15
2018-09-04T15:01:54.417Z,40.26
2018-09-04T15:04:22.396Z,39.63
2018-09-04T15:06:50.402Z,39.90
2018-09-04T15:09:18.001Z,39.06
2018-09-04T15:11:45.632Z,39.05
2018-09-04T15:14:13.250Z,39.41
2018-09-04T15:16:41.131Z,38.91
2018-09-04T15:19:08.787Z,38.61
2018-09-04T15:21:36.773Z,38.66
2018-09-04T15:24:05.037Z,38.68
2018-09-04T15:26:32.695Z,39.01
2018-09-04T15:29:00.380Z,39.11
2018-09-04T15:31:28.108Z,38.88
2018-09-04T15:33:56.126Z,38.84
2018-09-04T15:36:23.762Z,39.52
2018-09-04T15:38:51.908Z,39.24
2018-09-04T15:41:19.611Z,40.26
2018-09-04T15:43:47.592Z,40.36
2018-09-04T15:46:15.511Z,41.00
2018-09-04T15:48:43.224Z,40.80
2018-09-04T15:51:10.855Z,41.54
2018-09-04T15:53:38.492Z,42.00
2018-09-04T15:56:06.121Z,42.93
2018-09-04T15:58:34.640Z,43.13
2018-09-04T16:01:02.412Z,43.77
2018-09-04T16:03:30.091Z,43.70
2018-09-04T16:05:58.310Z,44.54
2018-09-04T16:08:26.081Z,44.58
2018-09-04T16:10:53.890Z,44.52
2018-09-04T16:13:21.529Z,45.21
2018-09-04T16:15:49.424Z,44.97
2018-09-04T16:18:17.407Z,45.32
2018-09-04T16:20:45.017Z,44.97
2018-09-04T16:23:12.615Z,45.24
2018-09-04T16:25:40.667Z,45.23
2018-09-04T16:28:08.778Z,45.95
2018-09-04T16:30:36.786Z,46.28
2018-09-04T16:33:04.731Z,46.56
2018-09-04T16:35:32.468Z,46.16
2018-09-04T16:38:00.098Z,46.22
2018-09-04T16:40:28.086Z,47.22
2018-09-04T16:42:55.729Z,46.84
2018-09-04T16:45:23.481Z,46.44
2018-09-04T16:47:51.333Z,47.33
2018-09-04T16:50:18.922Z,47.45
2018-09-04T16:52:47.468Z,46.41
2018-09-04T16:55:15.597Z,47.04
2018-09-04T16:57:43.282Z,48.44
2018-09-04T17:00:11.375Z,48.44
2018-09-04T17:02:39.493Z,48.13
2018-09-04T17:05:07.371Z,47.72
2018-09-04T17:07:35.285Z,47.70
2018-09-04T17:10:03.016Z,46.94
2018-09-04T17:12:31.438Z,47.12
2018-09-04T17:14:59.156Z,46.73
2018-09-04T17:17:27.022Z,47.00
2018-09-04T17:20:10.070Z,47.59
2018-09-04T17:22:37.990Z,47.56
2018-09-04T17:25:05.651Z,46.67
2018-09-04T17:27:33.404Z,47.04
2018-09-04T17:30:01.309Z,47.80
2018-09-04T17:32:29.358Z,48.04
2018-09-04T17:34:57.320Z,47.40
2018-09-04T17:37:25.604Z,47.72
2018-09-04T17:39:53.359Z,48.27
2018-09-04T17:42:21.228Z,48.19
2018-09-04T17:44:48.877Z,48.27
2018-09-04T17:47:16.659Z,48.26
2018-09-04T17:49:44.660Z,48.25
2018-09-04T17:52:12.513Z,47.90
2018-09-04T17:54:40.242Z,49.25
2018-09-04T17:57:08.227Z,49.11
2018-09-04T17:59:36.761Z,48.73
2018-09-04T18:02:04.679Z,49.64
2018-09-04T18:04:32.409Z,49.44
2018-09-04T18:07:00.053Z,48.81
2018-09-04T18:09:27.701Z,48.91
2018-09-04T18:11:55.459Z,49.01
2018-09-04T18:14:23.100Z,50.06
2018-09-04T18:16:50.751Z,49.34
2018-09-04T18:19:19.050Z,50.33
2018-09-04T18:21:46.905Z,50.02
2018-09-04T18:24:14.600Z,50.09
2018-09-04T18:26:42.600Z,50.33
2018-09-04T18:29:10.358Z,50.57
2018-09-04T18:31:37.985Z,49.75
2018-09-04T18:34:05.769Z,49.89
2018-09-04T18:36:33.777Z,50.98
2018-09-04T18:39:01.500Z,50.14
2018-09-04T18:41:29.536Z,50.98
2018-09-04T18:43:57.520Z,50.66
2018-09-04T18:46:25.242Z,50.13
2018-09-04T18:48:54.981Z,50.54
2018-09-04T18:51:23.516Z,51.22
2018-09-04T18:53:51.478Z,51.38
2018-09-04T18:56:19.214Z,50.57
2018-09-04T18:58:47.309Z,50.97
2018-09-04T19:01:14.951Z,51.00
2018-09-04T19:03:42.616Z,50.67
2018-09-04T19:06:10.447Z,50.86
2018-09-04T19:08:38.249Z,51.51
2018-09-04T19:11:05.944Z,51.45
2018-09-04T19:13:33.815Z,50.89
2018-09-04T19:16:01.415Z,50.58
2018-09-04T19:18:29.152Z,50.94
2018-09-04T19:20:57.041Z,50.45
2018-09-04T19:23:25.051Z,50.97
2018-09-04T19:25:53.007Z,50.85
2018-09-04T19:28:20.797Z,51.50
2018-09-04T19:30:49.173Z,51.09
2018-09-04T19:33:16.906Z,50.93
2018-09-04T19:35:44.648Z,51.38
2018-09-04T19:38:12.410Z,51.69
2018-09-04T19:40:40.163Z,51.87
2018-09-04T19:43:08.057Z,51.20
2018-09-04T19:45:35.910Z,51.75
2018-09-04T19:48:03.868Z,51.44
2018-09-04T19:50:31.909Z,51.78
2018-09-04T19:53:00.513Z,52.15
2018-09-04T19:55:28.824Z,51.77
2018-09-04T19:57:56.797Z,51.78
2018-09-04T20:00:24.627Z,51.21
2018-09-04T20:02:52.290Z,52.29
2018-09-04T20:05:20.038Z,51.85
2018-09-04T20:07:47.790Z,51.93
2018-09-04T20:10:15.592Z,52.02
2018-09-04T20:12:43.420Z,51.76
2018-09-04T20:15:11.203Z,51.44
2018-09-04T20:17:39.546Z,52.29
2018-09-04T20:20:07.309Z,51.99
2018-09-04T20:22:35.182Z,51.64
2018-09-04T20:25:02.934Z,52.38
2018-09-04T20:27:30.798Z,51.95
2018-09-04T20:29:58.534Z,52.52
2018-09-04T20:32:26.307Z,52.29
2018-09-04T20:34:54.558Z,52.08
2018-09-04T20:37:22.425Z,52.42
2018-09-04T20:39:50.315Z,51.79
2018-09-04T20:42:18.425Z,51.68
2018-09-04T20:44:46.761Z,52.49
2018-09-04T20:47:14.506Z,52.03
2018-09-04T20:49:42.249Z,52.17
2018-09-04T20:52:09.869Z,52.18
2018-09-04T20:54:38.195Z,52.70
2018-09-04T20:57:29.168Z,52.49
2018-09-04T21:00:09.306Z,52.74
2018-09-04T21:02:48.069Z,52.01
2018-09-04T21:05:27.569Z,52.11
2018-09-04T21:08:12.321Z,52.92
2018-09-04T21:10:40.792Z,52.05
2018-09-04T21:13:08.897Z,52.41
2018-09-04T21:15:36.561Z,52.87
2018-09-04T21:18:04.373Z,52.38
2018-09-04T21:20:32.224Z,52.07
2018-09-04T21:23:00.331Z,52.77
2018-09-04T21:25:28.096Z,52.44
2018-09-04T21:27:56.179Z,52.05
2018-09-04T21:30:23.887Z,52.75
2018-09-04T21:32:51.732Z,51.96
2018-09-04T21:35:19.680Z,52.13
2018-09-04T21:37:47.503Z,52.14
2018-09-04T21:40:15.497Z,52.40
2018-09-04T21:42:43.928Z,52.83
2018-09-04T21:45:11.818Z,52.81
2018-09-04T21:47:40.073Z,52.37
2018-09-04T21:50:08.157Z,52.85
2018-09-04T21:52:35.993Z,52.37
2018-09-04T21:55:04.583Z,52.92
2018-09-04T21:57:32.410Z,52.88
2018-09-04T22:00:00.334Z,52.57
2018-09-04T22:02:28.013Z,52.58
2018-09-04T22:04:55.739Z,52.58
2018-09-04T22:07:23.596Z,53.34
2018-09-04T22:09:51.245Z,53.36
2018-09-04T22:12:19.449Z,53.11
2018-09-04T22:14:47.143Z,52.38
2018-09-04T22:17:14.764Z,52.80
2018-09-04T22:19:42.648Z,53.55
2018-09-04T22:22:10.669Z,53.35
2018-09-04T22:24:38.948Z,52.65
2018-09-04T22:27:08.564Z,53.27
2018-09-04T22:29:38.281Z,53.46
2018-09-04T22:32:06.024Z,53.57
2018-09-04T22:34:33.919Z,53.29
2018-09-04T22:37:02.495Z,53.60
2018-09-04T22:39:30.402Z,53.54
2018-09-04T22:41:58.333Z,53.08
2018-09-04T22:44:26.249Z,54.03
2018-09-04T22:46:54.277Z,53.56
2018-09-04T22:49:22.356Z,54.24
2018-09-04T22:51:50.106Z,53.49
2018-09-04T22:54:17.765Z,53.96
2018-09-04T22:56:45.865Z,53.94
2018-09-04T22:59:13.666Z,53.85
2018-09-04T23:01:41.526Z,53.77
2018-09-04T23:04:09.398Z,53.38
2018-09-04T23:06:37.370Z,53.15
2018-09-04T23:09:06.474Z,53.38
2018-09-04T23:11:34.226Z,53.83
2018-09-04T23:14:01.906Z,53.96
2018-09-04T23:16:29.686Z,53.86
2018-09-04T23:18:57.446Z,53.87
2018-09-04T23:21:25.292Z,53.80
2018-09-04T23:23:54.014Z,53.40
2018-09-04T23:26:21.662Z,53.42
2018-09-04T23:28:49.899Z,53.96
2018-09-04T23:31:17.794Z,53.44
2018-09-04T23:33:46.146Z,53.31
2018-09-04T23:36:15.059Z,54.05
2018-09-04T23:38:42.940Z,53.21
2018-09-04T23:41:10.685Z,53.77
2018-09-04T23:43:38.425Z,53.17
2018-09-04T23:46:06.314Z,53.87
2018-09-04T23:48:34.020Z,53.15
2018-09-04T23:51:02.511Z,53.33
2018-09-04T23:53:30.770Z,53.41
2018-09-04T23:55:58.719Z,53.93
2018-09-04T23:58:26.956Z,53.81
